createdAt,value
2023-02-02T00:01:46.127Z,0.20
2023-02-02T00:04:18.158Z,0.45
2023-02-02T00:06:47.018Z,0.30
2023-02-02T00:09:17.984Z,0.30
2023-02-02T00:11:47.222Z,0.70
2023-02-02T00:14:15.626Z,1.75
2023-02-02T00:16:45.008Z,0.43
2023-02-02T00:19:16.737Z,0.35
2023-02-02T00:21:45.199Z,0.98
2023-02-02T00:24:17.958Z,0.50
2023-02-02T00:26:47.468Z,0.80
2023-02-02T00:31:44.951Z,0.60
2023-02-02T00:34:15.630Z,1.58
2023-02-02T00:36:44.571Z,1.20
2023-02-02T00:39:15.214Z,0.57
2023-02-02T00:41:43.316Z,0.90
2023-02-02T00:44:28.947Z,1.00
2023-02-02T00:46:56.974Z,0.60
2023-02-02T00:49:26.368Z,0.40
2023-02-02T00:51:54.418Z,0.50
2023-02-02T00:54:22.528Z,0.63
2023-02-02T00:56:50.616Z,0.90
2023-02-02T00:59:18.632Z,0.80
2023-02-02T01:01:46.775Z,1.65
2023-02-02T01:04:14.861Z,0.63
2023-02-02T01:06:44.261Z,1.17
2023-02-02T01:09:12.262Z,0.50
2023-02-02T01:11:40.264Z,0.85
2023-02-02T01:14:08.316Z,0.80
2023-02-02T01:16:36.408Z,1.13
2023-02-02T01:19:04.800Z,1.15
2023-02-02T01:21:32.835Z,1.25
2023-02-02T01:24:02.234Z,1.27
2023-02-02T01:26:30.293Z,2.88
2023-02-02T01:28:58.357Z,1.65
2023-02-02T01:31:27.000Z,0.68
2023-02-02T01:33:55.072Z,0.95
2023-02-02T01:36:25.191Z,3.08
2023-02-02T01:38:53.443Z,2.50
2023-02-02T01:41:24.454Z,2.17
2023-02-02T01:43:58.538Z,0.80
2023-02-02T01:46:28.379Z,2.75
2023-02-02T01:49:01.904Z,3.00
2023-02-02T01:51:35.474Z,3.08
2023-02-02T01:54:06.871Z,1.83
2023-02-02T01:56:42.583Z,1.83
2023-02-02T01:59:13.234Z,3.15
2023-02-02T02:01:41.969Z,3.03
2023-02-02T02:04:10.025Z,3.10
2023-02-02T02:06:38.776Z,3.20
2023-02-02T02:09:08.229Z,3.17
2023-02-02T02:11:38.833Z,5.28
2023-02-02T02:14:27.438Z,5.45
2023-02-02T02:17:09.743Z,2.72
2023-02-02T02:20:22.451Z,3.17
2023-02-02T02:23:36.858Z,6.00
2023-02-02T02:26:36.936Z,2.92
2023-02-02T02:29:37.406Z,4.13
2023-02-02T02:32:23.172Z,3.65
2023-02-02T02:34:56.170Z,3.22
2023-02-02T02:37:34.592Z,1.50
2023-02-02T02:40:09.153Z,3.90
2023-02-02T02:42:41.020Z,1.48
2023-02-02T02:45:12.472Z,3.20
2023-02-02T02:47:43.250Z,5.03
2023-02-02T02:50:12.528Z,6.28
2023-02-02T02:52:42.301Z,3.92
2023-02-02T02:55:11.918Z,1.77
2023-02-02T03:00:29.777Z,1.58
2023-02-02T03:03:09.218Z,3.90
2023-02-02T03:08:13.165Z,2.75
2023-02-02T03:10:42.569Z,2.38
2023-02-02T03:13:12.718Z,0.88
2023-02-02T03:15:42.759Z,3.50
2023-02-02T03:18:13.766Z,1.30
2023-02-02T03:20:42.363Z,2.15
2023-02-02T03:23:10.409Z,1.47
2023-02-02T03:25:38.640Z,2.70
2023-02-02T03:28:07.305Z,2.22
2023-02-02T03:30:35.873Z,1.45
2023-02-02T03:33:04.339Z,5.95
2023-02-02T03:35:33.783Z,1.98
2023-02-02T03:38:01.835Z,2.55
2023-02-02T03:40:30.394Z,4.20
2023-02-02T03:42:58.400Z,3.63
2023-02-02T03:45:28.678Z,4.13
2023-02-02T03:47:56.981Z,5.22
2023-02-02T03:50:25.772Z,3.03
2023-02-02T03:52:55.851Z,4.30
2023-02-02T03:55:24.177Z,2.67
2023-02-02T03:57:52.487Z,1.63
2023-02-02T04:00:21.349Z,3.47
2023-02-02T04:02:49.437Z,3.92
2023-02-02T04:05:17.516Z,2.22
2023-02-02T04:07:45.583Z,7.63
2023-02-02T04:10:14.988Z,3.25
2023-02-02T04:12:42.981Z,5.70
2023-02-02T04:15:12.161Z,8.93
2023-02-02T04:17:40.401Z,1.85
2023-02-02T04:20:09.170Z,4.30
2023-02-02T04:22:37.188Z,4.97
2023-02-02T04:25:05.624Z,4.10
2023-02-02T04:27:35.009Z,4.82
2023-02-02T04:30:03.080Z,8.63
2023-02-02T04:32:31.375Z,3.53
2023-02-02T04:34:59.447Z,4.57
2023-02-02T04:37:27.464Z,5.97
2023-02-02T04:39:55.532Z,6.22
2023-02-02T04:42:23.571Z,5.45
2023-02-02T04:44:52.965Z,2.80
2023-02-02T04:47:20.984Z,5.32
2023-02-02T04:49:48.976Z,4.25
2023-02-02T04:52:17.155Z,6.18
2023-02-02T04:54:45.199Z,9.88
2023-02-02T04:57:13.232Z,3.20
2023-02-02T04:59:42.533Z,4.53
2023-02-02T05:02:11.969Z,5.72
2023-02-02T05:04:40.008Z,5.30
2023-02-02T05:07:08.350Z,4.50
2023-02-02T05:09:36.350Z,4.63
2023-02-02T05:12:04.721Z,2.28
2023-02-02T05:14:32.794Z,4.15
2023-02-02T05:17:00.836Z,4.57
2023-02-02T05:19:30.400Z,4.10
2023-02-02T05:24:27.631Z,2.78
2023-02-02T05:26:58.630Z,6.15
2023-02-02T05:29:26.936Z,2.67
2023-02-02T05:31:55.232Z,6.28
2023-02-02T05:34:23.915Z,6.13
2023-02-02T05:36:53.386Z,5.03
2023-02-02T05:41:49.502Z,5.50
2023-02-02T05:44:18.020Z,5.53
2023-02-02T05:46:46.220Z,2.13
2023-02-02T05:49:15.194Z,2.00
2023-02-02T05:51:46.159Z,5.38
2023-02-02T05:54:20.264Z,6.45
2023-02-02T05:56:48.691Z,7.10
2023-02-02T05:59:17.483Z,6.45
2023-02-02T06:01:45.857Z,6.05
2023-02-02T06:04:14.257Z,5.60
2023-02-02T06:06:42.650Z,5.57
2023-02-02T06:09:11.190Z,5.82
2023-02-02T06:11:40.581Z,4.80
2023-02-02T06:14:08.653Z,9.55
2023-02-02T06:16:36.833Z,6.35
2023-02-02T06:19:05.343Z,9.35
2023-02-02T06:21:33.524Z,6.97
2023-02-02T06:24:02.213Z,8.50
2023-02-02T06:26:30.495Z,4.65
2023-02-02T06:28:59.978Z,4.53
2023-02-02T06:31:28.157Z,5.78
2023-02-02T06:33:57.911Z,6.05
2023-02-02T06:36:27.694Z,5.80
2023-02-02T06:38:57.206Z,8.63
2023-02-02T06:43:53.592Z,8.75
2023-02-02T06:46:23.072Z,8.93
2023-02-02T06:51:18.939Z,9.13
2023-02-02T06:53:50.662Z,10.52
2023-02-02T06:56:18.741Z,9.40
2023-02-02T06:58:46.751Z,8.65
2023-02-02T07:01:15.749Z,11.75
2023-02-02T07:03:48.838Z,12.48
2023-02-02T07:06:19.559Z,7.45
2023-02-02T07:08:59.304Z,6.40
2023-02-02T07:11:31.022Z,8.15
2023-02-02T07:13:59.459Z,7.95
2023-02-02T07:16:27.511Z,12.60
2023-02-02T07:18:57.107Z,7.00
2023-02-02T07:21:28.246Z,7.13
2023-02-02T07:23:56.386Z,10.10
2023-02-02T07:26:24.452Z,12.82
2023-02-02T07:28:53.383Z,13.90
2023-02-02T07:31:23.859Z,9.95
2023-02-02T07:33:53.075Z,9.98
2023-02-02T07:36:24.373Z,11.35
2023-02-02T07:38:54.853Z,10.80
2023-02-02T07:41:23.342Z,11.65
2023-02-02T07:43:51.774Z,10.45
2023-02-02T07:46:20.685Z,6.50
2023-02-02T07:48:49.146Z,8.98
2023-02-02T07:51:19.338Z,8.93
2023-02-02T07:53:50.927Z,9.27
2023-02-02T07:56:21.047Z,11.35
2023-02-02T07:58:49.718Z,17.48
2023-02-02T08:01:19.437Z,10.33
2023-02-02T08:03:47.634Z,13.82
2023-02-02T08:06:19.138Z,19.05
2023-02-02T08:08:48.830Z,10.27
2023-02-02T08:11:19.339Z,11.75
2023-02-02T08:13:50.699Z,6.80
2023-02-02T08:16:18.820Z,6.68
2023-02-02T08:18:47.012Z,6.60
2023-02-02T08:21:16.042Z,14.57
2023-02-02T08:23:45.566Z,9.38
2023-02-02T08:28:45.777Z,7.57
2023-02-02T08:31:17.178Z,4.53
2023-02-02T08:33:45.571Z,8.85
2023-02-02T08:36:14.542Z,6.82
2023-02-02T08:38:42.719Z,5.03
2023-02-02T08:41:13.350Z,9.13
2023-02-02T08:43:43.274Z,7.07
2023-02-02T08:46:14.169Z,9.75
2023-02-02T08:48:42.557Z,13.52
2023-02-02T08:51:12.700Z,9.98
2023-02-02T08:53:40.725Z,8.35
2023-02-02T08:56:11.053Z,6.47
2023-02-02T08:58:39.090Z,8.52
2023-02-02T09:01:12.793Z,8.23
2023-02-02T09:03:41.868Z,8.60
2023-02-02T09:06:11.516Z,3.55
2023-02-02T09:08:39.855Z,6.15
2023-02-02T09:11:10.357Z,6.95
2023-02-02T09:13:40.274Z,5.28
2023-02-02T09:16:11.650Z,9.05
2023-02-02T09:18:40.033Z,12.18
2023-02-02T09:21:09.533Z,10.13
2023-02-02T09:26:13.432Z,8.38
2023-02-02T09:28:43.124Z,10.13
2023-02-02T09:31:13.432Z,8.38
2023-02-02T09:33:42.016Z,10.48
2023-02-02T09:36:11.998Z,7.53
2023-02-02T09:38:40.819Z,4.70
2023-02-02T09:41:55.908Z,4.40
2023-02-02T09:44:38.834Z,6.75
2023-02-02T09:47:17.531Z,5.07
2023-02-02T09:49:55.448Z,7.60
2023-02-02T09:52:26.922Z,9.35
2023-02-02T09:55:00.106Z,5.65
2023-02-02T09:57:34.326Z,6.05
2023-02-02T10:00:02.488Z,7.40
2023-02-02T10:02:38.721Z,5.85
2023-02-02T10:05:14.406Z,7.70
2023-02-02T10:07:46.589Z,8.60
2023-02-02T10:10:20.184Z,6.28
2023-02-02T10:12:57.047Z,9.20
2023-02-02T10:15:35.738Z,7.53
2023-02-02T10:18:14.011Z,11.30
2023-02-02T10:20:47.667Z,4.88
2023-02-02T10:23:24.171Z,7.72
2023-02-02T10:25:58.273Z,6.82
2023-02-02T10:28:42.142Z,9.85
2023-02-02T10:31:19.375Z,6.78
2023-02-02T10:33:59.101Z,6.93
2023-02-02T10:39:04.864Z,6.15
2023-02-02T10:41:42.296Z,8.60
2023-02-02T10:44:21.871Z,6.68
2023-02-02T10:49:33.327Z,6.40
2023-02-02T10:52:13.050Z,5.50
2023-02-02T10:54:59.204Z,6.05
2023-02-02T10:57:39.344Z,8.70
2023-02-02T11:00:16.621Z,9.80
2023-02-02T11:02:45.051Z,9.68
2023-02-02T11:05:38.506Z,7.50
2023-02-02T11:08:17.004Z,10.68
2023-02-02T11:10:46.238Z,10.52
2023-02-02T11:13:20.921Z,10.40
2023-02-02T11:15:49.028Z,27.27
2023-02-02T11:18:29.985Z,12.55
2023-02-02T11:20:59.397Z,14.90
2023-02-02T11:23:29.680Z,11.40
2023-02-02T11:26:05.226Z,10.30
2023-02-02T11:28:36.663Z,14.60
2023-02-02T11:31:05.003Z,11.05
2023-02-02T11:33:37.317Z,12.93
2023-02-02T11:36:20.540Z,11.27
2023-02-02T11:38:48.563Z,16.77
2023-02-02T11:41:17.113Z,12.75
2023-02-02T11:43:52.610Z,12.13
2023-02-02T11:46:24.355Z,9.20
2023-02-02T11:49:00.252Z,9.50
2023-02-02T11:51:31.452Z,8.98
2023-02-02T11:54:06.343Z,15.50
2023-02-02T11:56:38.120Z,11.18
2023-02-02T11:59:27.575Z,14.52
2023-02-02T12:02:22.274Z,15.55
2023-02-02T12:04:52.413Z,18.00
2023-02-02T12:07:26.872Z,13.15
2023-02-02T12:09:58.093Z,15.25
2023-02-02T12:12:37.176Z,10.73
2023-02-02T12:15:19.809Z,15.90
2023-02-02T12:17:49.287Z,12.27
2023-02-02T12:20:24.199Z,7.93
2023-02-02T12:23:09.527Z,13.57
2023-02-02T12:26:02.327Z,19.65
2023-02-02T12:28:46.505Z,11.70
2023-02-02T12:31:26.494Z,22.92
2023-02-02T12:33:59.159Z,32.70
2023-02-02T12:36:41.345Z,117.22
2023-02-02T12:39:24.616Z,48.53
2023-02-02T12:42:40.337Z,117.72
2023-02-02T12:45:50.747Z,104.70
2023-02-02T12:48:32.655Z,221.77
2023-02-02T12:51:11.569Z,61.50
2023-02-02T12:54:33.594Z,45.90
2023-02-02T12:56:50.332Z,28.27
2023-02-02T12:59:32.966Z,15.63
2023-02-02T13:02:06.961Z,15.05
2023-02-02T13:04:50.959Z,24.90
2023-02-02T13:07:42.389Z,21.90
2023-02-02T13:10:18.329Z,15.48
2023-02-02T13:12:52.752Z,15.88
2023-02-02T13:15:24.190Z,12.15
2023-02-02T13:17:55.976Z,10.50
2023-02-02T13:20:37.020Z,8.55
2023-02-02T13:23:11.035Z,10.95
2023-02-02T13:25:45.442Z,8.38
2023-02-02T13:28:22.302Z,11.38
2023-02-02T13:30:51.876Z,7.68
2023-02-02T13:33:26.329Z,7.88
2023-02-02T13:35:56.746Z,10.60
2023-02-02T13:38:26.804Z,6.65
2023-02-02T13:40:56.891Z,6.63
2023-02-02T13:43:41.052Z,5.07
2023-02-02T13:46:28.602Z,5.50
2023-02-02T13:49:08.321Z,6.25
2023-02-02T13:51:51.065Z,10.52
2023-02-02T13:55:01.070Z,6.38
2023-02-02T13:57:53.559Z,8.93
2023-02-02T14:00:26.773Z,5.38
2023-02-02T14:02:56.400Z,7.65
2023-02-02T14:08:04.336Z,8.43
2023-02-02T14:10:35.894Z,5.30
2023-02-02T14:13:29.156Z,4.97
2023-02-02T14:16:00.009Z,4.03
2023-02-02T14:18:54.031Z,7.63
2023-02-02T14:21:59.513Z,10.95
2023-02-02T14:24:45.068Z,6.65
2023-02-02T14:27:57.739Z,7.45
2023-02-02T14:30:38.471Z,7.18
2023-02-02T14:33:42.024Z,8.07
2023-02-02T14:36:16.808Z,4.30
2023-02-02T14:39:05.574Z,6.43
2023-02-02T14:42:16.402Z,4.80
2023-02-02T14:45:19.842Z,4.65
2023-02-02T14:47:51.288Z,5.57
2023-02-02T14:50:26.181Z,6.45
2023-02-02T14:53:00.997Z,4.80
2023-02-02T14:55:29.924Z,7.53
2023-02-02T14:58:01.940Z,6.07
2023-02-02T15:00:33.891Z,6.22
2023-02-02T15:03:37.577Z,5.80
2023-02-02T15:06:26.241Z,6.60
2023-02-02T15:09:27.175Z,4.05
2023-02-02T15:12:18.032Z,7.13
2023-02-02T15:14:51.318Z,5.97
2023-02-02T15:17:26.116Z,6.95
2023-02-02T15:19:59.823Z,7.70
2023-02-02T15:22:36.893Z,5.70
2023-02-02T15:25:13.524Z,7.95
2023-02-02T15:27:57.051Z,9.32
2023-02-02T15:30:27.386Z,5.38
2023-02-02T15:32:57.136Z,7.30
2023-02-02T15:35:30.236Z,7.70
2023-02-02T15:38:01.443Z,4.85
2023-02-02T15:40:32.248Z,6.50
2023-02-02T15:43:03.283Z,9.82
2023-02-02T15:45:34.782Z,7.13
2023-02-02T15:48:06.338Z,10.35
2023-02-02T15:50:34.619Z,8.85
2023-02-02T15:53:04.448Z,11.15
2023-02-02T15:55:34.579Z,8.80
2023-02-02T15:58:03.447Z,7.90
2023-02-02T16:00:34.723Z,8.25
2023-02-02T16:03:06.648Z,3.50
2023-02-02T16:05:48.533Z,6.30
2023-02-02T16:08:22.080Z,5.85
2023-02-02T16:10:50.570Z,6.25
2023-02-02T16:13:25.687Z,8.88
2023-02-02T16:15:58.403Z,9.13
2023-02-02T16:18:26.520Z,8.85
2023-02-02T16:20:56.679Z,5.20
2023-02-02T16:23:32.257Z,3.28
2023-02-02T16:26:03.705Z,4.55
2023-02-02T16:28:33.221Z,3.80
2023-02-02T16:33:34.517Z,3.88
2023-02-02T16:36:04.537Z,4.70
2023-02-02T16:38:39.505Z,3.92
2023-02-02T16:41:09.598Z,3.78
2023-02-02T16:43:38.911Z,5.30
2023-02-02T16:46:10.765Z,7.47
2023-02-02T16:48:42.164Z,6.60
2023-02-02T16:51:27.879Z,9.90
2023-02-02T16:54:11.650Z,8.27
2023-02-02T16:56:43.358Z,8.38
2023-02-02T16:59:20.091Z,4.90
2023-02-02T17:01:50.923Z,4.30
2023-02-02T17:04:24.665Z,5.80
2023-02-02T17:06:53.876Z,5.40
2023-02-02T17:09:35.554Z,3.88
2023-02-02T17:12:14.219Z,3.35
2023-02-02T17:14:53.758Z,6.88
2023-02-02T17:17:21.901Z,7.15
2023-02-02T17:19:50.079Z,5.63
2023-02-02T17:22:21.020Z,6.95
2023-02-02T17:24:52.712Z,8.02
2023-02-02T17:27:27.362Z,15.68
2023-02-02T17:29:56.043Z,13.77
2023-02-02T17:32:24.881Z,16.25
2023-02-02T17:34:52.956Z,6.07
2023-02-02T17:37:20.993Z,13.98
2023-02-02T17:39:51.410Z,7.32
2023-02-02T17:42:25.583Z,9.82
2023-02-02T17:44:53.648Z,15.02
2023-02-02T17:47:21.809Z,9.30
2023-02-02T17:49:49.880Z,8.00
2023-02-02T17:52:17.945Z,6.35
2023-02-02T17:54:46.070Z,6.07
2023-02-02T17:57:16.225Z,10.43
2023-02-02T17:59:44.286Z,7.75
2023-02-02T18:02:16.352Z,6.45
2023-02-02T18:04:45.710Z,9.43
2023-02-02T18:09:41.923Z,9.77
2023-02-02T18:12:09.950Z,9.05
2023-02-02T18:14:39.696Z,9.82
2023-02-02T18:17:09.030Z,7.10
2023-02-02T18:19:39.105Z,10.75
2023-02-02T18:22:07.434Z,7.55
2023-02-02T18:24:35.449Z,7.68
2023-02-02T18:27:03.595Z,7.15
2023-02-02T18:29:31.748Z,6.97
2023-02-02T18:32:01.306Z,7.03
2023-02-02T18:36:58.053Z,8.45
2023-02-02T18:39:26.443Z,11.63
2023-02-02T18:41:55.075Z,10.25
2023-02-02T18:44:23.920Z,9.93
2023-02-02T18:46:52.120Z,15.55
2023-02-02T18:49:21.976Z,11.18
2023-02-02T18:51:50.026Z,10.45
2023-02-02T18:54:18.068Z,13.07
2023-02-02T18:56:46.097Z,10.95
2023-02-02T18:59:14.148Z,10.18
2023-02-02T19:01:42.407Z,8.25
2023-02-02T19:04:10.538Z,10.00
2023-02-02T19:06:57.620Z,12.00
2023-02-02T19:09:25.726Z,7.15
2023-02-02T19:11:54.861Z,10.73
2023-02-02T19:14:26.550Z,10.55
2023-02-02T19:17:00.155Z,11.27
2023-02-02T19:19:30.259Z,7.20
2023-02-02T19:22:02.103Z,8.20
2023-02-02T19:24:37.669Z,9.27
2023-02-02T19:27:15.718Z,18.73
2023-02-02T19:29:44.065Z,11.90
2023-02-02T19:32:18.208Z,15.23
2023-02-02T19:34:46.565Z,12.88
2023-02-02T19:37:24.576Z,8.77
2023-02-02T19:39:55.525Z,12.30
2023-02-02T19:42:24.807Z,10.80
2023-02-02T19:44:53.993Z,10.55
2023-02-02T19:47:28.978Z,11.13
2023-02-02T19:49:58.164Z,13.50
2023-02-02T19:52:27.672Z,11.68
2023-02-02T19:57:34.018Z,9.93
2023-02-02T20:00:09.959Z,9.25
2023-02-02T20:02:44.691Z,11.20
2023-02-02T20:05:20.373Z,15.77
2023-02-02T20:07:56.745Z,9.77
2023-02-02T20:10:27.075Z,9.13
2023-02-02T20:12:56.441Z,10.95
2023-02-02T20:15:34.084Z,11.00
2023-02-02T20:18:04.374Z,11.98
2023-02-02T20:20:39.645Z,10.98
2023-02-02T20:23:37.911Z,11.27
2023-02-02T20:26:18.023Z,13.43
2023-02-02T20:28:46.757Z,11.00
2023-02-02T20:31:17.990Z,11.48
2023-02-02T20:33:48.777Z,8.48
2023-02-02T20:36:37.966Z,10.73
2023-02-02T20:39:28.602Z,14.45
2023-02-02T20:41:58.710Z,8.93
2023-02-02T20:44:27.296Z,11.13
2023-02-02T20:46:55.998Z,10.33
2023-02-02T20:49:25.606Z,10.45
2023-02-02T20:51:54.296Z,17.45
2023-02-02T20:54:24.304Z,12.45
2023-02-02T20:56:54.323Z,16.92
2023-02-02T20:59:22.530Z,16.15
2023-02-02T21:01:51.027Z,10.13
2023-02-02T21:04:19.661Z,15.47
2023-02-02T21:06:49.292Z,10.88
2023-02-02T21:09:18.563Z,10.18
2023-02-02T21:11:48.280Z,18.88
2023-02-02T21:14:16.295Z,16.73
2023-02-02T21:16:44.404Z,7.72
2023-02-02T21:19:12.518Z,14.18
2023-02-02T21:21:40.588Z,8.25
2023-02-02T21:24:08.886Z,9.63
2023-02-02T21:26:36.916Z,9.32
2023-02-02T21:29:06.369Z,9.02
2023-02-02T21:34:03.486Z,7.53
2023-02-02T21:36:34.930Z,15.43
2023-02-02T21:39:21.874Z,10.25
2023-02-02T21:41:51.129Z,18.15
2023-02-02T21:44:22.337Z,8.45
2023-02-02T21:46:52.736Z,10.93
2023-02-02T21:49:24.799Z,8.20
2023-02-02T21:51:55.611Z,11.60
2023-02-02T21:54:25.389Z,11.98
2023-02-02T21:56:54.215Z,11.35
2023-02-02T21:59:24.624Z,7.80
2023-02-02T22:01:53.210Z,9.73
2023-02-02T22:04:24.456Z,13.50
2023-02-02T22:06:54.110Z,17.52
2023-02-02T22:09:24.432Z,22.38
2023-02-02T22:11:55.181Z,21.80
2023-02-02T22:14:32.697Z,13.73
2023-02-02T22:17:01.226Z,16.52
2023-02-02T22:19:33.065Z,13.33
2023-02-02T22:22:18.022Z,14.82
2023-02-02T22:24:49.207Z,7.40
2023-02-02T22:27:22.782Z,10.40
2023-02-02T22:29:56.139Z,9.23
2023-02-02T22:32:24.170Z,10.70
2023-02-02T22:34:52.212Z,6.78
2023-02-02T22:37:20.273Z,7.85
2023-02-02T22:39:48.257Z,13.52
2023-02-02T22:42:18.117Z,12.60
2023-02-02T22:44:46.393Z,12.25
2023-02-02T22:47:15.754Z,5.35
2023-02-02T22:49:43.798Z,8.90
2023-02-02T22:52:11.815Z,8.57
2023-02-02T22:54:39.866Z,7.45
2023-02-02T22:57:07.873Z,8.40
2023-02-02T22:59:35.904Z,8.93
2023-02-02T23:02:04.000Z,12.77
2023-02-02T23:04:33.403Z,10.20
2023-02-02T23:07:01.444Z,6.32
2023-02-02T23:09:29.471Z,12.00
2023-02-02T23:11:57.491Z,8.93
2023-02-02T23:14:25.716Z,11.73
2023-02-02T23:16:53.745Z,16.55
2023-02-02T23:19:21.786Z,13.77
2023-02-02T23:21:51.229Z,8.13
2023-02-02T23:26:47.111Z,5.53
2023-02-02T23:29:15.152Z,7.10
2023-02-02T23:31:43.194Z,11.60
2023-02-02T23:34:11.290Z,6.80
2023-02-02T23:36:39.329Z,11.60
2023-02-02T23:39:08.735Z,13.93
2023-02-02T23:41:36.807Z,11.50
2023-02-02T23:44:05.064Z,7.03
2023-02-02T23:46:33.478Z,10.20
2023-02-02T23:49:01.816Z,6.07
2023-02-02T23:51:29.796Z,11.20
2023-02-02T23:53:58.143Z,7.95
2023-02-02T23:56:27.748Z,6.95
